createdAt,value
2022-12-23T00:02:06.221Z,76.21
2022-12-23T00:04:39.383Z,76.04
2022-12-23T00:07:06.132Z,76.09
2022-12-23T00:09:46.192Z,76.10
2022-12-23T00:22:58.784Z,76.05
2022-12-23T00:25:34.638Z,75.79
2022-12-23T00:28:08.159Z,75.77
2022-12-23T00:30:46.324Z,75.73
2022-12-23T00:33:31.172Z,75.73
2022-12-23T00:50:08.141Z,75.57
2022-12-23T00:52:48.174Z,75.34
2022-12-23T00:55:21.993Z,75.23
2022-12-23T00:57:55.156Z,75.32
2022-12-23T01:00:28.798Z,75.42
2022-12-23T01:03:02.392Z,75.24
2022-12-23T01:05:38.287Z,74.97
2022-12-23T01:15:21.183Z,74.62
2022-12-23T01:17:54.636Z,74.80
2022-12-23T01:20:28.164Z,74.55
2022-12-23T01:23:03.952Z,74.57
2022-12-23T01:25:37.710Z,74.57
2022-12-23T01:28:11.421Z,74.70
2022-12-23T01:30:45.149Z,74.70
2022-12-23T01:43:58.183Z,74.71
2022-12-23T01:46:31.444Z,74.81
2022-12-23T01:49:05.154Z,74.69
2022-12-23T01:51:38.553Z,74.61
2022-12-23T01:54:12.171Z,74.75
2022-12-23T02:11:17.132Z,74.80
2022-12-23T02:14:18.177Z,74.84
2022-12-23T02:17:08.730Z,74.73
2022-12-23T02:20:41.176Z,74.49
2022-12-23T02:24:07.208Z,74.76
2022-12-23T02:37:20.108Z,74.93
2022-12-23T02:40:08.148Z,75.06
2022-12-23T02:42:48.969Z,74.93
2022-12-23T02:45:40.179Z,75.04
2022-12-23T02:48:22.825Z,74.89
2022-12-23T03:04:03.182Z,74.98
2022-12-23T03:06:40.965Z,75.06
2022-12-23T03:09:31.150Z,75.39
2022-12-23T03:12:14.892Z,75.27
2022-12-23T03:15:21.145Z,75.36
2022-12-23T03:29:11.133Z,75.63
2022-12-23T03:31:49.891Z,75.52
2022-12-23T03:34:38.773Z,75.61
2022-12-23T03:37:16.759Z,75.74
2022-12-23T03:40:07.129Z,75.79
2022-12-23T03:42:45.484Z,75.60
2022-12-23T03:45:39.208Z,75.99
2022-12-23T03:55:56.091Z,75.74
2022-12-23T03:58:46.144Z,75.64
2022-12-23T04:01:36.795Z,75.96
2022-12-23T04:04:26.163Z,75.86
2022-12-23T04:07:06.895Z,75.82
2022-12-23T04:09:48.137Z,75.74
2022-12-23T04:23:00.149Z,75.87
2022-12-23T04:25:33.447Z,75.83
2022-12-23T04:28:07.185Z,75.90
2022-12-23T04:30:40.466Z,75.62
2022-12-23T04:33:16.413Z,75.90
2022-12-23T04:35:49.486Z,75.84
2022-12-23T04:49:23.104Z,75.79
2022-12-23T04:52:05.119Z,76.20
2022-12-23T04:54:45.539Z,76.64
2022-12-23T04:57:26.200Z,76.72
2022-12-23T04:59:59.461Z,76.54
2022-12-23T05:02:33.230Z,76.69
2022-12-23T05:05:07.524Z,76.46
2022-12-23T05:18:05.083Z,76.64
2022-12-23T05:20:45.113Z,76.43
2022-12-23T05:23:18.437Z,76.66
2022-12-23T05:25:57.110Z,76.65
2022-12-23T05:28:30.856Z,76.45
2022-12-23T05:44:03.118Z,76.57
2022-12-23T05:46:36.500Z,76.80
2022-12-23T05:49:11.731Z,76.66
2022-12-23T05:51:45.399Z,76.66
2022-12-23T05:54:19.119Z,76.37
2022-12-23T06:10:56.072Z,76.46
2022-12-23T06:13:36.112Z,76.66
2022-12-23T06:16:09.452Z,76.71
2022-12-23T06:18:43.091Z,76.58
2022-12-23T06:21:16.364Z,76.54
2022-12-23T06:23:50.105Z,76.47
2022-12-23T06:37:02.132Z,76.72
2022-12-23T06:39:35.402Z,76.80
2022-12-23T06:42:10.164Z,76.67
2022-12-23T06:44:43.452Z,76.68
2022-12-23T06:47:17.104Z,76.55
2022-12-23T06:49:50.490Z,76.50
2022-12-23T07:03:11.175Z,76.65
2022-12-23T07:05:54.121Z,76.55
2022-12-23T07:08:27.362Z,76.42
2022-12-23T07:11:04.104Z,76.40
2022-12-23T07:13:37.371Z,76.24
2022-12-23T07:16:13.099Z,76.35
2022-12-23T07:18:53.688Z,76.56
2022-12-23T07:31:49.126Z,76.36
2022-12-23T07:34:31.085Z,76.50
2022-12-23T07:37:04.567Z,76.42
2022-12-23T07:39:38.095Z,76.29
2022-12-23T07:45:14.077Z,76.48
2022-12-23T07:58:26.098Z,76.66
2022-12-23T08:01:01.041Z,76.79
2022-12-23T08:03:34.126Z,76.99
2022-12-23T08:06:13.074Z,76.76
2022-12-23T08:08:53.147Z,76.69
2022-12-23T08:25:30.468Z,76.95
2022-12-23T08:28:10.120Z,76.88
2022-12-23T08:30:43.659Z,77.36
2022-12-23T08:33:17.103Z,77.21
2022-12-23T08:35:53.892Z,77.21
2022-12-23T08:38:34.083Z,77.38
2022-12-23T08:51:46.151Z,77.31
2022-12-23T08:54:19.373Z,77.33
2022-12-23T08:56:53.182Z,77.54
2022-12-23T08:59:26.701Z,77.63
2022-12-23T09:02:00.168Z,77.36
2022-12-23T09:04:33.513Z,77.67
2022-12-23T09:17:24.125Z,77.71
2022-12-23T09:20:04.125Z,77.51
2022-12-23T09:22:37.360Z,77.64
2022-12-23T09:25:12.149Z,77.32
2022-12-23T09:27:45.297Z,77.75
2022-12-23T09:30:20.086Z,77.61
2022-12-23T09:43:56.115Z,77.49
2022-12-23T09:46:33.846Z,77.64
2022-12-23T09:49:20.692Z,77.67
2022-12-23T09:52:02.684Z,77.55
2022-12-23T09:54:51.178Z,77.61
2022-12-23T09:57:36.603Z,77.62
2022-12-23T10:00:29.075Z,77.74
2022-12-23T10:10:35.040Z,77.75
2022-12-23T10:13:31.103Z,77.48
2022-12-23T10:16:16.488Z,77.72
2022-12-23T10:19:03.120Z,77.32
2022-12-23T10:21:47.784Z,77.38
2022-12-23T10:24:31.059Z,77.44
2022-12-23T10:37:54.081Z,77.50
2022-12-23T10:40:39.150Z,77.53
2022-12-23T10:43:33.108Z,77.42
2022-12-23T10:46:20.564Z,77.26
2022-12-23T10:49:17.067Z,77.43
2022-12-23T11:05:59.077Z,77.44
2022-12-23T11:08:39.092Z,77.35
2022-12-23T11:11:12.553Z,77.30
2022-12-23T11:13:49.108Z,77.15
2022-12-23T11:16:25.412Z,77.24
2022-12-23T11:19:03.111Z,77.14
2022-12-23T11:32:25.061Z,77.00
2022-12-23T11:34:58.398Z,76.89
2022-12-23T11:37:42.075Z,77.07
2022-12-23T11:40:26.560Z,77.13
2022-12-23T11:43:11.045Z,77.36
2022-12-23T11:45:44.423Z,76.95
2022-12-23T11:58:44.051Z,77.03
2022-12-23T12:01:31.453Z,77.08
2022-12-23T12:04:15.905Z,76.94
2022-12-23T12:06:58.076Z,77.00
2022-12-23T12:09:34.114Z,77.06
2022-12-23T12:25:56.113Z,76.84
2022-12-23T12:28:37.225Z,76.82
2022-12-23T12:31:29.316Z,77.07
2022-12-23T12:34:27.159Z,76.90
2022-12-23T12:37:17.107Z,76.67
2022-12-23T12:39:55.852Z,76.81
2022-12-23T12:52:53.024Z,76.85
2022-12-23T12:55:38.093Z,76.85
2022-12-23T12:58:19.445Z,76.67
2022-12-23T13:01:26.080Z,76.73
2022-12-23T13:04:54.506Z,77.01
2022-12-23T13:18:11.073Z,76.68
2022-12-23T13:21:02.111Z,76.75
2022-12-23T13:23:46.511Z,76.56
2022-12-23T13:26:45.035Z,76.89
2022-12-23T13:29:41.608Z,76.66
2022-12-23T13:46:15.093Z,76.48
2022-12-23T13:48:59.636Z,76.60
2022-12-23T13:51:55.063Z,76.47
2022-12-23T13:54:48.635Z,76.61
2022-12-23T13:58:00.036Z,76.32
2022-12-23T14:00:34.639Z,76.47
2022-12-23T14:13:26.000Z,76.33
2022-12-23T14:16:28.158Z,76.33
2022-12-23T14:19:53.036Z,76.49
2022-12-23T14:22:53.117Z,76.19
2022-12-23T14:25:48.263Z,76.29
2022-12-23T14:38:45.002Z,76.34
2022-12-23T14:41:30.046Z,76.46
2022-12-23T14:44:17.948Z,76.29
2022-12-23T14:47:03.123Z,76.29
2022-12-23T14:49:42.400Z,76.45
2022-12-23T15:06:11.068Z,76.28
2022-12-23T15:08:47.353Z,76.31
2022-12-23T15:11:35.381Z,76.41
2022-12-23T15:14:18.095Z,76.30
2022-12-23T15:16:58.049Z,76.27
2022-12-23T15:19:32.421Z,76.34
2022-12-23T15:32:25.051Z,76.36
2022-12-23T15:35:12.043Z,76.48
2022-12-23T15:37:48.996Z,76.58
2022-12-23T15:40:32.083Z,76.48
2022-12-23T15:43:19.662Z,76.45
2022-12-23T15:59:38.059Z,76.44
2022-12-23T16:05:35.093Z,76.31
2022-12-23T16:08:19.351Z,75.97
2022-12-23T16:11:12.073Z,76.08
2022-12-23T16:13:58.677Z,76.14
2022-12-23T16:26:56.052Z,76.08
2022-12-23T16:29:38.086Z,76.14
2022-12-23T16:32:15.860Z,76.35
2022-12-23T16:34:58.027Z,76.34
2022-12-23T16:37:31.263Z,76.20
2022-12-23T16:39:58.112Z,76.32
2022-12-23T16:52:55.000Z,76.23
2022-12-23T16:55:35.040Z,75.90
2022-12-23T16:58:08.438Z,76.00
2022-12-23T17:00:44.035Z,75.97
2022-12-23T17:03:19.123Z,75.92
2022-12-23T17:05:53.070Z,76.13
2022-12-23T17:19:05.698Z,76.04
2022-12-23T17:21:42.188Z,76.02
2022-12-23T17:24:23.024Z,75.97
2022-12-23T17:26:56.367Z,75.78
2022-12-23T17:29:30.025Z,76.09
2022-12-23T17:32:04.116Z,76.10
2022-12-23T17:34:39.082Z,76.27
2022-12-23T17:45:08.988Z,76.37
2022-12-23T17:47:49.057Z,76.18
2022-12-23T17:50:24.943Z,76.44
2022-12-23T17:52:58.008Z,76.26
2022-12-23T17:55:32.469Z,76.29
2022-12-23T17:58:13.060Z,76.28
2022-12-23T18:00:46.379Z,76.24
2022-12-23T18:13:37.032Z,76.14
2022-12-23T18:16:18.079Z,76.09
2022-12-23T18:18:51.320Z,76.07
2022-12-23T18:21:34.726Z,76.22
2022-12-23T18:24:10.450Z,76.19
2022-12-23T18:40:34.005Z,75.94
2022-12-23T18:43:16.697Z,75.79
2022-12-23T18:45:58.013Z,75.79
2022-12-23T18:48:31.247Z,75.70
2022-12-23T18:51:05.029Z,75.89
2022-12-23T18:53:38.263Z,75.93
2022-12-23T18:56:18.068Z,75.69
2022-12-23T19:06:13.959Z,75.76
2022-12-23T19:08:54.047Z,75.70
2022-12-23T19:11:29.508Z,75.62
2022-12-23T19:14:02.978Z,75.62
2022-12-23T19:16:36.433Z,75.59
2022-12-23T19:19:09.987Z,75.46
2022-12-23T19:32:22.060Z,75.47
2022-12-23T19:34:55.215Z,75.62
2022-12-23T19:37:21.941Z,75.52
2022-12-23T19:40:02.056Z,75.36
2022-12-23T19:42:37.409Z,75.36
2022-12-23T19:45:13.064Z,75.52
2022-12-23T19:59:00.053Z,75.69
2022-12-23T20:01:33.373Z,75.70
2022-12-23T20:04:07.044Z,75.75
2022-12-23T20:06:42.179Z,75.80
2022-12-23T20:09:17.995Z,75.96
2022-12-23T20:11:51.241Z,75.87
2022-12-23T20:14:30.439Z,75.69
2022-12-23T20:27:44.976Z,76.02
2022-12-23T20:30:20.804Z,75.82
2022-12-23T20:32:54.045Z,75.87
2022-12-23T20:35:29.082Z,75.91
2022-12-23T20:38:03.033Z,75.93
2022-12-23T20:40:36.411Z,76.06
2022-12-23T20:53:26.959Z,75.98
2022-12-23T20:56:07.001Z,75.85
2022-12-23T20:58:40.793Z,75.85
2022-12-23T21:01:15.025Z,75.69
2022-12-23T21:03:55.516Z,75.83
2022-12-23T21:20:18.039Z,75.99
2022-12-23T21:22:51.247Z,75.98
2022-12-23T21:25:25.016Z,75.87
2022-12-23T21:27:58.219Z,75.91
2022-12-23T21:30:33.729Z,75.76
2022-12-23T21:33:09.579Z,75.83
2022-12-23T21:35:51.999Z,75.83
2022-12-23T21:46:04.011Z,76.19
2022-12-23T21:48:50.042Z,76.06
2022-12-23T21:51:33.348Z,75.98
2022-12-23T21:54:18.972Z,76.10
2022-12-23T21:56:52.176Z,76.15
2022-12-23T21:59:31.114Z,75.87
2022-12-23T22:12:47.038Z,76.06
2022-12-23T22:15:20.197Z,76.24
2022-12-23T22:17:53.971Z,76.19
2022-12-23T22:20:27.216Z,76.17
2022-12-23T22:23:01.018Z,76.27
2022-12-23T22:25:34.845Z,76.25
2022-12-23T22:41:50.045Z,76.30
2022-12-23T22:44:23.207Z,76.41
2022-12-23T22:46:56.968Z,76.27
2022-12-23T22:49:30.353Z,76.22
2022-12-23T22:52:04.018Z,76.37
2022-12-23T22:54:37.260Z,76.27
2022-12-23T23:07:26.980Z,76.13
2022-12-23T23:10:07.387Z,76.21
2022-12-23T23:12:41.767Z,76.17
2022-12-23T23:15:17.025Z,76.29
2022-12-23T23:17:50.322Z,76.40
2022-12-23T23:20:23.964Z,76.69
2022-12-23T23:33:35.956Z,77.33
2022-12-23T23:36:09.930Z,77.45
2022-12-23T23:38:44.245Z,77.93
2022-12-23T23:41:22.578Z,77.66
2022-12-23T23:44:04.057Z,77.75
